createdAt,value
2023-09-28T00:01:18.965Z,19.50
2023-09-28T00:03:46.606Z,19.50
2023-09-28T00:06:13.640Z,19.40
2023-09-28T00:08:40.371Z,19.40
2023-09-28T00:11:07.159Z,19.40
2023-09-28T00:13:33.807Z,19.40
2023-09-28T00:16:00.426Z,19.30
2023-09-28T00:18:27.078Z,19.30
2023-09-28T00:20:53.812Z,19.30
2023-09-28T00:23:20.537Z,19.30
2023-09-28T00:25:48.103Z,19.30
2023-09-28T00:28:14.843Z,19.20
2023-09-28T00:30:43.497Z,19.20
2023-09-28T00:33:10.243Z,19.10
2023-09-28T00:35:37.374Z,19.10
2023-09-28T00:38:04.399Z,19.10
2023-09-28T00:40:34.046Z,19.00
2023-09-28T00:43:02.831Z,18.90
2023-09-28T00:45:29.982Z,18.90
2023-09-28T00:48:06.312Z,18.90
2023-09-28T00:50:33.659Z,18.90
2023-09-28T00:53:03.487Z,18.90
2023-09-28T00:55:31.935Z,18.90
2023-09-28T00:58:01.472Z,18.90
2023-09-28T01:00:30.564Z,18.90
2023-09-28T01:02:58.853Z,18.90
2023-09-28T01:05:28.008Z,19.00
2023-09-28T01:07:56.678Z,19.00
2023-09-28T01:10:26.439Z,19.00
2023-09-28T01:12:53.069Z,19.00
2023-09-28T01:15:20.497Z,19.00
2023-09-28T01:17:47.195Z,19.00
2023-09-28T01:20:20.440Z,18.90
2023-09-28T01:22:49.942Z,18.90
2023-09-28T01:25:22.524Z,18.90
2023-09-28T01:27:50.819Z,18.90
2023-09-28T01:30:17.487Z,18.90
2023-09-28T01:32:44.380Z,18.80
2023-09-28T01:35:14.140Z,18.80
2023-09-28T01:38:06.451Z,18.80
2023-09-28T01:40:33.168Z,18.80
2023-09-28T01:42:59.760Z,18.80
2023-09-28T01:45:26.438Z,18.80
2023-09-28T01:47:53.234Z,18.80
2023-09-28T01:50:19.913Z,18.70
2023-09-28T01:52:46.880Z,18.70
2023-09-28T01:55:13.542Z,18.80
2023-09-28T01:57:40.229Z,18.70
2023-09-28T02:00:19.664Z,18.70
2023-09-28T02:02:47.722Z,18.60
2023-09-28T02:05:19.161Z,18.60
2023-09-28T02:07:46.610Z,18.60
2023-09-28T02:10:13.793Z,18.70
2023-09-28T02:12:41.255Z,18.60
2023-09-28T02:15:10.416Z,18.60
2023-09-28T02:17:38.156Z,18.60
2023-09-28T02:20:12.056Z,18.50
2023-09-28T02:22:44.595Z,18.50
2023-09-28T02:25:16.763Z,18.50
2023-09-28T02:27:43.744Z,18.50
2023-09-28T02:30:16.090Z,18.50
2023-09-28T02:32:49.464Z,18.50
2023-09-28T02:35:18.257Z,18.50
2023-09-28T02:37:47.244Z,18.50
2023-09-28T02:40:16.117Z,18.50
2023-09-28T02:42:44.057Z,18.50
2023-09-28T02:45:14.368Z,18.50
2023-09-28T02:47:42.862Z,18.40
2023-09-28T02:50:11.183Z,18.40
2023-09-28T02:52:39.681Z,18.40
2023-09-28T02:55:08.765Z,18.40
2023-09-28T02:57:36.717Z,18.40
2023-09-28T03:00:14.226Z,18.30
2023-09-28T03:02:40.892Z,18.30
2023-09-28T03:05:08.564Z,18.30
2023-09-28T03:07:35.592Z,18.30
2023-09-28T03:10:05.613Z,18.30
2023-09-28T03:12:32.218Z,18.30
2023-09-28T03:14:58.892Z,18.30
2023-09-28T03:17:25.569Z,18.30
2023-09-28T03:19:52.332Z,18.30
2023-09-28T03:22:20.805Z,18.30
2023-09-28T03:24:47.948Z,18.20
2023-09-28T03:27:14.528Z,18.20
2023-09-28T03:29:42.995Z,18.20
2023-09-28T03:32:09.908Z,18.20
2023-09-28T03:34:38.082Z,18.10
2023-09-28T03:37:05.596Z,18.10
2023-09-28T03:39:32.355Z,18.10
2023-09-28T03:41:58.934Z,18.10
2023-09-28T03:44:25.880Z,18.10
2023-09-28T03:46:52.756Z,18.10
2023-09-28T03:49:19.427Z,18.10
2023-09-28T03:51:46.103Z,18.10
2023-09-28T03:54:12.799Z,18.10
2023-09-28T03:56:39.992Z,18.00
2023-09-28T03:59:07.458Z,18.00
2023-09-28T04:01:34.967Z,18.00
2023-09-28T04:04:01.669Z,18.00
2023-09-28T04:06:28.274Z,18.00
2023-09-28T04:08:54.971Z,18.00
2023-09-28T04:11:21.824Z,18.00
2023-09-28T04:13:48.464Z,18.00
2023-09-28T04:16:15.693Z,17.90
2023-09-28T04:18:42.302Z,17.90
2023-09-28T04:21:09.119Z,17.90
2023-09-28T04:23:35.765Z,17.90
2023-09-28T04:26:02.364Z,17.90
2023-09-28T04:28:29.020Z,17.90
2023-09-28T04:30:55.651Z,17.90
2023-09-28T04:33:22.340Z,17.90
2023-09-28T04:35:50.770Z,17.90
2023-09-28T04:38:18.024Z,17.90
2023-09-28T04:40:44.729Z,17.90
2023-09-28T04:43:11.367Z,17.90
2023-09-28T04:45:39.340Z,17.80
2023-09-28T04:48:06.209Z,17.90
2023-09-28T04:50:32.894Z,17.90
2023-09-28T04:52:59.906Z,17.90
2023-09-28T04:55:26.606Z,17.90
2023-09-28T04:57:54.285Z,17.90
2023-09-28T05:00:21.279Z,17.90
2023-09-28T05:02:48.687Z,18.00
2023-09-28T05:05:16.322Z,18.00
2023-09-28T05:07:43.897Z,18.00
2023-09-28T05:10:10.668Z,18.00
2023-09-28T05:12:37.279Z,18.00
2023-09-28T05:15:04.705Z,18.00
2023-09-28T05:17:33.167Z,18.00
2023-09-28T05:20:00.034Z,18.00
2023-09-28T05:22:27.468Z,18.00
2023-09-28T05:24:54.928Z,18.00
2023-09-28T05:27:21.953Z,18.10
2023-09-28T05:29:48.557Z,18.00
2023-09-28T05:32:15.235Z,18.00
2023-09-28T05:34:41.926Z,18.00
2023-09-28T05:37:08.510Z,18.10
2023-09-28T05:39:35.118Z,18.10
2023-09-28T05:42:02.814Z,18.10
2023-09-28T05:44:30.626Z,18.00
2023-09-28T05:46:57.556Z,18.00
2023-09-28T05:49:24.340Z,18.00
2023-09-28T05:51:51.075Z,18.00
2023-09-28T05:54:17.814Z,18.00
2023-09-28T05:56:45.692Z,18.00
2023-09-28T05:59:12.307Z,18.00
2023-09-28T06:01:39.001Z,18.00
2023-09-28T06:04:07.021Z,18.00
2023-09-28T06:06:33.678Z,18.00
2023-09-28T06:09:00.337Z,17.90
2023-09-28T06:11:27.118Z,18.00
2023-09-28T06:16:26.726Z,17.90
2023-09-28T06:18:55.261Z,17.90
2023-09-28T06:21:22.018Z,17.90
2023-09-28T06:23:49.332Z,17.90
2023-09-28T06:26:26.039Z,18.00
2023-09-28T06:29:02.204Z,18.00
2023-09-28T06:31:29.097Z,18.00
2023-09-28T06:33:55.789Z,18.00
2023-09-28T06:36:39.863Z,18.00
2023-09-28T06:39:09.612Z,18.00
2023-09-28T06:41:36.221Z,18.00
2023-09-28T06:44:03.065Z,18.10
2023-09-28T06:46:29.969Z,18.10
2023-09-28T06:48:56.984Z,18.20
2023-09-28T06:51:23.838Z,18.20
2023-09-28T06:53:50.620Z,18.20
2023-09-28T06:56:17.658Z,18.30
2023-09-28T06:58:44.603Z,18.40
2023-09-28T07:01:11.580Z,18.50
2023-09-28T07:03:38.307Z,18.50
2023-09-28T07:06:06.699Z,18.60
2023-09-28T07:08:33.609Z,18.60
2023-09-28T07:11:00.544Z,18.70
2023-09-28T07:13:28.083Z,18.70
2023-09-28T07:15:58.314Z,18.70
2023-09-28T07:18:26.885Z,18.80
2023-09-28T07:20:53.758Z,18.90
2023-09-28T07:23:20.439Z,19.00
2023-09-28T07:25:47.166Z,19.00
2023-09-28T07:28:13.780Z,19.00
2023-09-28T07:30:40.402Z,19.00
2023-09-28T07:33:08.289Z,19.10
2023-09-28T07:35:35.165Z,19.20
2023-09-28T07:38:01.955Z,19.10
2023-09-28T07:40:36.551Z,19.10
2023-09-28T07:43:13.344Z,19.10
2023-09-28T07:45:41.890Z,19.20
2023-09-28T07:48:08.746Z,19.20
2023-09-28T07:50:35.502Z,19.30
2023-09-28T07:53:02.212Z,19.30
2023-09-28T07:55:28.928Z,19.30
2023-09-28T07:58:02.307Z,19.40
2023-09-28T08:00:35.126Z,19.50
2023-09-28T08:03:01.867Z,19.80
2023-09-28T08:05:28.676Z,19.80
2023-09-28T08:08:10.242Z,19.80
2023-09-28T08:10:41.135Z,20.00
2023-09-28T08:13:07.803Z,20.00
2023-09-28T08:15:37.204Z,20.00
2023-09-28T08:18:04.757Z,20.10
2023-09-28T08:20:34.939Z,20.10
2023-09-28T08:23:04.742Z,20.20
2023-09-28T08:25:32.205Z,20.30
2023-09-28T08:27:58.940Z,20.30
2023-09-28T08:30:25.575Z,20.30
2023-09-28T08:32:55.204Z,20.40
2023-09-28T08:35:22.285Z,20.40
2023-09-28T08:37:49.122Z,20.40
2023-09-28T08:40:15.838Z,20.50
2023-09-28T08:42:46.895Z,20.60
2023-09-28T08:45:17.212Z,20.60
2023-09-28T08:47:49.685Z,20.80
2023-09-28T08:50:22.770Z,20.80
2023-09-28T08:52:51.783Z,20.90
2023-09-28T08:55:22.100Z,20.90
2023-09-28T08:57:49.398Z,20.90
2023-09-28T09:00:16.806Z,20.80
2023-09-28T09:02:44.650Z,20.90
2023-09-28T09:05:14.594Z,20.90
2023-09-28T09:07:45.005Z,20.80
2023-09-28T09:10:14.081Z,20.90
2023-09-28T09:12:40.828Z,21.00
2023-09-28T09:15:08.220Z,20.90
2023-09-28T09:17:36.503Z,21.10
2023-09-28T09:20:06.521Z,21.10
2023-09-28T09:22:44.849Z,21.10
2023-09-28T09:25:13.326Z,21.10
2023-09-28T09:27:39.911Z,21.30
2023-09-28T09:30:09.152Z,21.20
2023-09-28T09:32:39.127Z,21.10
2023-09-28T09:35:08.271Z,21.20
2023-09-28T09:37:35.192Z,21.40
2023-09-28T09:40:13.518Z,21.50
2023-09-28T09:42:40.341Z,21.40
2023-09-28T09:45:08.412Z,21.40
2023-09-28T09:47:35.777Z,21.40
2023-09-28T09:50:03.455Z,21.50
2023-09-28T09:52:31.558Z,21.50
2023-09-28T09:54:58.242Z,21.60
2023-09-28T09:57:25.322Z,21.80
2023-09-28T09:59:54.514Z,21.90
2023-09-28T10:02:26.507Z,22.00
2023-09-28T10:04:57.528Z,22.10
2023-09-28T10:07:45.364Z,22.00
2023-09-28T10:10:15.537Z,21.90
2023-09-28T10:12:42.433Z,22.00
2023-09-28T10:15:10.676Z,22.20
2023-09-28T10:17:37.909Z,22.10
2023-09-28T10:20:08.174Z,22.00
2023-09-28T10:22:35.390Z,22.00
2023-09-28T10:25:01.992Z,21.90
2023-09-28T10:27:30.699Z,22.00
2023-09-28T10:30:19.986Z,21.90
2023-09-28T10:32:47.585Z,21.90
2023-09-28T10:35:29.680Z,22.00
2023-09-28T10:38:17.069Z,22.20
2023-09-28T10:40:50.888Z,22.40
2023-09-28T10:43:31.093Z,22.60
2023-09-28T10:46:08.300Z,22.60
2023-09-28T10:48:46.357Z,22.70
2023-09-28T10:51:16.532Z,22.60
2023-09-28T10:53:44.326Z,22.60
2023-09-28T10:56:11.862Z,22.70
2023-09-28T10:58:39.994Z,22.80
2023-09-28T11:01:07.797Z,22.80
2023-09-28T11:03:36.665Z,22.80
2023-09-28T11:06:06.003Z,22.70
2023-09-28T11:08:33.793Z,22.70
2023-09-28T11:11:03.111Z,22.80
2023-09-28T11:13:31.069Z,22.80
2023-09-28T11:15:58.825Z,22.70
2023-09-28T11:18:29.627Z,22.70
2023-09-28T11:21:00.681Z,22.90
2023-09-28T11:23:28.841Z,23.00
2023-09-28T11:25:56.481Z,23.10
2023-09-28T11:28:24.660Z,23.20
2023-09-28T11:31:09.627Z,23.30
2023-09-28T11:33:40.320Z,23.40
2023-09-28T11:36:24.122Z,23.30
2023-09-28T11:38:53.719Z,22.90
2023-09-28T11:41:22.351Z,22.90
2023-09-28T11:43:59.095Z,22.80
2023-09-28T11:46:32.460Z,22.50
2023-09-28T11:49:06.093Z,22.50
2023-09-28T11:51:37.358Z,22.30
2023-09-28T11:54:08.287Z,22.40
2023-09-28T11:56:35.637Z,22.60
2023-09-28T11:59:02.359Z,22.60
2023-09-28T12:01:29.836Z,22.50
2023-09-28T12:03:58.559Z,22.50
2023-09-28T12:06:25.749Z,22.70
2023-09-28T12:08:52.657Z,22.80
2023-09-28T12:11:19.388Z,22.80
2023-09-28T12:13:47.738Z,22.90
2023-09-28T12:16:14.569Z,22.80
2023-09-28T12:18:41.292Z,22.80
2023-09-28T12:21:08.266Z,22.80
2023-09-28T12:23:34.904Z,22.90
2023-09-28T12:26:02.852Z,23.00
2023-09-28T12:28:29.802Z,23.10
2023-09-28T12:30:57.617Z,23.10
2023-09-28T12:33:24.674Z,22.90
2023-09-28T12:35:51.453Z,22.70
2023-09-28T12:38:18.735Z,22.70
2023-09-28T12:40:47.947Z,22.60
2023-09-28T12:43:14.512Z,22.80
2023-09-28T12:45:42.951Z,22.70
2023-09-28T12:48:11.176Z,22.70
2023-09-28T12:50:38.335Z,22.40
2023-09-28T12:53:05.310Z,22.50
2023-09-28T12:55:32.019Z,22.60
2023-09-28T12:57:58.820Z,22.70
2023-09-28T13:00:26.344Z,22.80
2023-09-28T13:02:53.929Z,23.00
2023-09-28T13:05:21.006Z,23.10
2023-09-28T13:07:48.515Z,23.00
2023-09-28T13:10:23.150Z,23.10
2023-09-28T13:12:52.583Z,23.30
2023-09-28T13:15:19.304Z,23.20
2023-09-28T13:17:46.240Z,23.00
2023-09-28T13:20:25.554Z,23.00
2023-09-28T13:22:54.965Z,23.00
2023-09-28T13:25:24.100Z,23.00
2023-09-28T13:27:54.435Z,23.10
2023-09-28T13:30:24.095Z,23.20
2023-09-28T13:32:52.597Z,23.10
2023-09-28T13:35:20.899Z,23.00
2023-09-28T13:37:48.041Z,23.20
2023-09-28T13:40:23.465Z,23.50
2023-09-28T13:42:52.084Z,23.70
2023-09-28T13:45:18.985Z,23.60
2023-09-28T13:47:46.557Z,23.60
2023-09-28T13:50:13.529Z,23.60
2023-09-28T13:52:40.345Z,23.30
2023-09-28T13:55:08.026Z,23.40
2023-09-28T13:57:35.094Z,23.40
2023-09-28T14:00:04.117Z,23.50
2023-09-28T14:02:30.932Z,23.60
2023-09-28T14:04:57.587Z,23.50
2023-09-28T14:07:24.230Z,23.70
2023-09-28T14:09:52.373Z,23.90
2023-09-28T14:12:20.139Z,23.90
2023-09-28T14:14:46.722Z,23.80
2023-09-28T14:17:21.769Z,23.80
2023-09-28T14:19:58.892Z,23.60
2023-09-28T14:22:25.605Z,23.70
2023-09-28T14:24:52.162Z,23.60
2023-09-28T14:27:18.794Z,23.60
2023-09-28T14:29:45.468Z,23.90
2023-09-28T14:32:12.156Z,24.10
2023-09-28T14:34:38.773Z,24.10
2023-09-28T14:37:05.496Z,23.80
2023-09-28T14:39:32.170Z,23.60
2023-09-28T14:41:58.954Z,23.60
2023-09-28T14:44:25.854Z,23.70
2023-09-28T14:46:52.921Z,23.70
2023-09-28T14:49:19.688Z,23.70
2023-09-28T14:51:46.379Z,23.60
2023-09-28T14:54:13.016Z,23.60
2023-09-28T14:56:39.728Z,23.60
2023-09-28T14:59:06.456Z,23.50
2023-09-28T15:01:33.730Z,23.40
2023-09-28T15:04:01.247Z,23.50
2023-09-28T15:06:27.950Z,23.50
2023-09-28T15:08:54.543Z,23.40
2023-09-28T15:11:22.042Z,23.40
2023-09-28T15:13:48.996Z,23.40
2023-09-28T15:16:16.039Z,23.40
2023-09-28T15:18:42.918Z,23.50
2023-09-28T15:21:11.477Z,23.40
2023-09-28T15:23:38.331Z,23.60
2023-09-28T15:26:05.589Z,23.70
2023-09-28T15:28:32.881Z,23.70
2023-09-28T15:30:59.850Z,23.80
2023-09-28T15:33:26.629Z,23.80
2023-09-28T15:35:57.566Z,23.80
2023-09-28T15:38:26.245Z,23.80
2023-09-28T15:40:52.862Z,23.80
2023-09-28T15:43:19.489Z,23.50
2023-09-28T15:45:47.316Z,23.60
2023-09-28T15:48:14.299Z,23.70
2023-09-28T15:50:41.496Z,23.80
2023-09-28T15:53:09.584Z,23.80
2023-09-28T15:55:36.286Z,23.80
2023-09-28T15:58:03.411Z,23.70
2023-09-28T16:00:37.974Z,23.60
2023-09-28T16:03:05.972Z,23.50
2023-09-28T16:05:33.087Z,23.40
2023-09-28T16:08:00.223Z,23.40
2023-09-28T16:10:27.289Z,23.40
2023-09-28T16:12:54.057Z,23.40
2023-09-28T16:15:20.928Z,23.40
2023-09-28T16:17:47.754Z,23.40
2023-09-28T16:20:14.669Z,23.40
2023-09-28T16:22:41.383Z,23.40
2023-09-28T16:25:09.001Z,23.50
2023-09-28T16:27:35.781Z,23.50
2023-09-28T16:30:02.516Z,23.50
2023-09-28T16:32:29.213Z,23.60
2023-09-28T16:34:55.894Z,23.60
2023-09-28T16:37:22.542Z,23.70
2023-09-28T16:39:49.228Z,23.90
2023-09-28T16:42:15.848Z,23.90
2023-09-28T16:44:42.655Z,24.00
2023-09-28T16:47:09.433Z,24.00
2023-09-28T16:49:36.105Z,23.80
2023-09-28T16:52:02.709Z,23.60
2023-09-28T16:54:29.335Z,23.60
2023-09-28T16:56:55.966Z,23.50
2023-09-28T16:59:22.652Z,23.30
2023-09-28T17:01:49.309Z,23.20
2023-09-28T17:04:16.117Z,23.20
2023-09-28T17:06:43.458Z,23.20
2023-09-28T17:09:10.648Z,23.20
2023-09-28T17:11:37.291Z,23.10
2023-09-28T17:14:04.066Z,23.00
2023-09-28T17:16:32.409Z,23.00
2023-09-28T17:18:59.814Z,23.00
2023-09-28T17:21:26.754Z,22.90
2023-09-28T17:23:53.480Z,22.80
2023-09-28T17:26:20.235Z,22.80
2023-09-28T17:28:47.009Z,22.70
2023-09-28T17:31:15.121Z,22.60
2023-09-28T17:33:42.068Z,22.60
2023-09-28T17:36:08.733Z,22.60
2023-09-28T17:38:35.960Z,22.60
2023-09-28T17:41:02.785Z,22.50
2023-09-28T17:43:29.450Z,22.50
2023-09-28T17:45:57.016Z,22.10
2023-09-28T17:48:23.711Z,21.80
2023-09-28T17:50:51.397Z,21.40
2023-09-28T17:53:19.192Z,21.30
2023-09-28T17:55:47.989Z,21.30
2023-09-28T17:58:18.246Z,21.20
2023-09-28T18:00:48.666Z,21.40
2023-09-28T18:03:15.425Z,21.50
2023-09-28T18:05:42.285Z,21.70
2023-09-28T18:08:08.989Z,21.80
2023-09-28T18:10:36.013Z,21.80
2023-09-28T18:13:05.224Z,21.90
2023-09-28T18:15:33.124Z,21.90
2023-09-28T18:17:59.866Z,21.90
2023-09-28T18:20:26.742Z,21.90
2023-09-28T18:22:53.906Z,21.80
2023-09-28T18:25:20.966Z,21.80
2023-09-28T18:27:48.028Z,21.80
2023-09-28T18:30:14.681Z,21.80
2023-09-28T18:32:41.697Z,21.80
2023-09-28T18:35:09.673Z,21.90
2023-09-28T18:37:36.322Z,21.80
2023-09-28T18:40:02.962Z,21.80
2023-09-28T18:42:29.536Z,21.80
2023-09-28T18:44:56.176Z,21.90
2023-09-28T18:47:22.819Z,21.80
2023-09-28T18:49:49.432Z,21.70
2023-09-28T18:52:16.175Z,21.60
2023-09-28T18:54:45.641Z,21.30
2023-09-28T18:57:12.301Z,21.10
2023-09-28T18:59:39.007Z,21.00
2023-09-28T19:02:05.861Z,21.10
2023-09-28T19:04:35.342Z,21.20
2023-09-28T19:07:02.723Z,21.30
2023-09-28T19:09:29.446Z,21.30
2023-09-28T19:11:56.253Z,21.40
2023-09-28T19:14:23.111Z,21.50
2023-09-28T19:16:51.923Z,21.50
2023-09-28T19:19:19.413Z,21.50
2023-09-28T19:21:46.163Z,21.60
2023-09-28T19:24:12.832Z,21.50
2023-09-28T19:26:39.591Z,21.50
2023-09-28T19:29:08.832Z,21.50
2023-09-28T19:31:37.033Z,21.50
2023-09-28T19:34:07.683Z,21.40
2023-09-28T19:36:35.438Z,21.40
2023-09-28T19:39:02.189Z,21.40
2023-09-28T19:41:29.573Z,21.40
2023-09-28T19:43:56.407Z,21.30
2023-09-28T19:46:24.534Z,21.00
2023-09-28T19:48:52.952Z,20.70
2023-09-28T19:51:21.120Z,20.60
2023-09-28T19:53:47.855Z,20.70
2023-09-28T19:56:26.175Z,20.70
2023-09-28T19:58:53.471Z,20.70
2023-09-28T20:01:21.455Z,20.60
2023-09-28T20:03:48.845Z,20.50
2023-09-28T20:06:16.221Z,20.60
2023-09-28T20:08:42.993Z,20.60
2023-09-28T20:11:09.637Z,20.60
2023-09-28T20:13:36.370Z,20.70
2023-09-28T20:16:06.024Z,20.70
2023-09-28T20:18:33.209Z,20.70
2023-09-28T20:21:04.199Z,20.70
2023-09-28T20:23:31.123Z,20.60
2023-09-28T20:25:58.025Z,20.60
2023-09-28T20:28:25.223Z,20.60
2023-09-28T20:30:51.973Z,20.50
2023-09-28T20:33:18.696Z,20.40
2023-09-28T20:35:46.659Z,20.40
2023-09-28T20:38:13.963Z,20.30
2023-09-28T20:40:40.839Z,20.30
2023-09-28T20:43:07.535Z,20.30
2023-09-28T20:45:41.264Z,20.40
2023-09-28T20:48:08.492Z,20.50
2023-09-28T20:50:35.644Z,20.40
2023-09-28T20:53:02.923Z,20.40
2023-09-28T20:55:31.033Z,20.40
2023-09-28T20:57:57.631Z,20.50
2023-09-28T21:00:25.106Z,20.40
2023-09-28T21:02:51.821Z,20.40
2023-09-28T21:05:18.639Z,20.40
2023-09-28T21:07:45.955Z,20.30
2023-09-28T21:10:13.550Z,20.30
2023-09-28T21:12:40.199Z,20.30
2023-09-28T21:15:10.445Z,20.30
2023-09-28T21:17:39.582Z,20.30
2023-09-28T21:20:08.465Z,20.20
2023-09-28T21:22:35.402Z,20.20
2023-09-28T21:25:03.119Z,20.10
2023-09-28T21:27:29.987Z,20.10
2023-09-28T21:29:56.714Z,20.20
2023-09-28T21:32:24.403Z,20.20
2023-09-28T21:34:52.858Z,20.20
2023-09-28T21:37:19.542Z,20.20
2023-09-28T21:39:46.174Z,20.20
2023-09-28T21:42:14.963Z,20.20
2023-09-28T21:44:41.637Z,20.20
2023-09-28T21:47:08.278Z,20.20
2023-09-28T21:49:34.880Z,20.30
2023-09-28T21:52:01.705Z,20.30
2023-09-28T21:54:28.444Z,20.30
2023-09-28T21:56:55.043Z,20.30
2023-09-28T21:59:21.784Z,20.30
2023-09-28T22:01:48.607Z,20.40
2023-09-28T22:04:15.287Z,20.30
2023-09-28T22:06:43.116Z,20.30
2023-09-28T22:09:11.174Z,20.20
2023-09-28T22:11:37.933Z,20.20
2023-09-28T22:14:04.912Z,20.30
2023-09-28T22:16:31.599Z,20.30
2023-09-28T22:18:58.266Z,20.30
2023-09-28T22:21:24.913Z,20.30
2023-09-28T22:23:51.550Z,20.30
2023-09-28T22:26:18.285Z,20.30
2023-09-28T22:28:44.976Z,20.30
2023-09-28T22:31:11.672Z,20.30
2023-09-28T22:33:38.331Z,20.40
2023-09-28T22:36:06.892Z,20.40
2023-09-28T22:38:33.941Z,20.30
2023-09-28T22:41:00.793Z,20.30
2023-09-28T22:43:27.381Z,20.30
2023-09-28T22:45:54.029Z,20.20
2023-09-28T22:48:20.749Z,20.20
2023-09-28T22:50:47.766Z,20.30
2023-09-28T22:53:14.417Z,20.20
2023-09-28T22:55:41.472Z,20.30
2023-09-28T22:58:08.067Z,20.20
2023-09-28T23:00:37.435Z,20.10
2023-09-28T23:03:05.335Z,20.10
2023-09-28T23:08:02.134Z,20.10
2023-09-28T23:10:29.875Z,20.20
2023-09-28T23:12:57.038Z,20.20
2023-09-28T23:15:23.991Z,20.10
2023-09-28T23:17:50.786Z,20.20
2023-09-28T23:20:23.635Z,20.10
2023-09-28T23:22:53.043Z,20.10
2023-09-28T23:25:20.123Z,20.10
2023-09-28T23:27:47.605Z,20.10
2023-09-28T23:30:18.766Z,20.10
2023-09-28T23:32:47.418Z,20.10
2023-09-28T23:35:17.723Z,20.20
2023-09-28T23:37:45.885Z,20.20
2023-09-28T23:40:17.210Z,20.20
2023-09-28T23:42:45.174Z,20.20
2023-09-28T23:45:13.099Z,20.20
2023-09-28T23:47:41.010Z,20.20
2023-09-28T23:50:10.418Z,20.20
2023-09-28T23:52:38.736Z,20.20
2023-09-28T23:55:16.880Z,20.10
2023-09-28T23:57:44.865Z,20.20
